createdAt,value
2023-04-09T00:00:00.445Z,77.57
2023-04-09T00:02:28.806Z,77.61
2023-04-09T00:04:56.714Z,77.71
2023-04-09T00:07:24.679Z,77.51
2023-04-09T00:09:52.499Z,77.50
2023-04-09T00:12:20.289Z,77.52
2023-04-09T00:14:48.055Z,77.55
2023-04-09T00:17:15.818Z,77.45
2023-04-09T00:19:43.651Z,77.40
2023-04-09T00:22:12.139Z,77.25
2023-04-09T00:24:39.884Z,77.53
2023-04-09T00:27:07.661Z,77.63
2023-04-09T00:29:35.528Z,77.84
2023-04-09T00:32:03.354Z,77.99
2023-04-09T00:34:31.190Z,77.93
2023-04-09T00:36:58.986Z,78.13
2023-04-09T00:39:27.644Z,78.19
2023-04-09T00:42:02.864Z,78.20
2023-04-09T00:44:31.308Z,77.90
2023-04-09T00:47:00.783Z,77.95
2023-04-09T00:49:28.947Z,77.97
2023-04-09T00:51:56.906Z,77.98
2023-04-09T00:54:24.834Z,77.93
2023-04-09T00:56:53.158Z,77.97
2023-04-09T00:59:21.845Z,77.80
2023-04-09T01:01:49.728Z,78.05
2023-04-09T01:04:18.026Z,78.17
2023-04-09T01:06:53.864Z,78.43
2023-04-09T01:09:29.864Z,78.66
2023-04-09T01:12:14.589Z,78.63
2023-04-09T01:14:56.821Z,78.86
2023-04-09T01:17:38.441Z,78.87
2023-04-09T01:20:12.383Z,78.73
2023-04-09T01:23:15.778Z,78.79
2023-04-09T01:26:16.929Z,78.61
2023-04-09T01:28:55.910Z,78.86
2023-04-09T01:31:37.461Z,78.73
2023-04-09T01:34:08.795Z,78.74
2023-04-09T01:36:40.452Z,79.18
2023-04-09T01:39:09.107Z,79.23
2023-04-09T01:41:40.208Z,78.98
2023-04-09T01:44:10.466Z,78.88
2023-04-09T01:46:40.189Z,78.90
2023-04-09T01:49:10.977Z,78.75
2023-04-09T01:51:39.483Z,78.82
2023-04-09T01:54:07.915Z,78.73
2023-04-09T01:56:47.933Z,78.53
2023-04-09T01:59:16.427Z,78.50
2023-04-09T02:01:59.799Z,78.42
2023-04-09T02:04:40.973Z,78.52
2023-04-09T02:07:44.129Z,78.33
2023-04-09T02:10:17.298Z,78.33
2023-04-09T02:12:50.804Z,78.68
2023-04-09T02:15:21.629Z,78.70
2023-04-09T02:17:49.643Z,78.61
2023-04-09T02:20:19.612Z,78.49
2023-04-09T02:22:47.814Z,78.54
2023-04-09T02:25:15.683Z,78.31
2023-04-09T02:27:43.458Z,78.16
2023-04-09T02:30:11.773Z,78.31
2023-04-09T02:32:39.904Z,78.39
2023-04-09T02:35:08.016Z,78.44
2023-04-09T02:37:35.944Z,78.26
2023-04-09T02:40:04.533Z,77.96
2023-04-09T02:42:32.285Z,78.04
2023-04-09T02:45:00.045Z,78.18
2023-04-09T02:47:30.352Z,78.25
2023-04-09T02:49:59.196Z,78.32
2023-04-09T02:52:27.850Z,78.56
2023-04-09T02:54:55.699Z,78.80
2023-04-09T02:57:23.619Z,78.75
2023-04-09T02:59:51.357Z,78.84
2023-04-09T03:02:19.729Z,78.78
2023-04-09T03:04:47.718Z,78.51
2023-04-09T03:07:15.484Z,78.31
2023-04-09T03:09:43.287Z,78.08
2023-04-09T03:12:11.707Z,78.28
2023-04-09T03:14:39.454Z,78.10
2023-04-09T03:17:07.218Z,78.25
2023-04-09T03:19:35.122Z,77.95
2023-04-09T03:22:03.300Z,77.78
2023-04-09T03:24:33.546Z,77.71
2023-04-09T03:27:03.867Z,77.78
2023-04-09T03:29:31.993Z,77.75
2023-04-09T03:31:59.853Z,77.82
2023-04-09T03:34:27.998Z,77.59
2023-04-09T03:36:57.187Z,77.58
2023-04-09T03:39:30.929Z,77.86
2023-04-09T03:41:59.089Z,77.55
2023-04-09T03:44:29.304Z,77.56
2023-04-09T03:47:01.150Z,77.63
2023-04-09T03:49:29.222Z,77.80
2023-04-09T03:51:59.904Z,77.71
2023-04-09T03:54:33.537Z,77.65
2023-04-09T03:57:03.736Z,77.70
2023-04-09T03:59:31.583Z,77.96
2023-04-09T04:01:59.521Z,78.10
2023-04-09T04:04:28.348Z,78.31
2023-04-09T04:06:58.071Z,78.43
2023-04-09T04:09:31.688Z,78.56
2023-04-09T04:12:04.332Z,78.68
2023-04-09T04:14:54.778Z,78.59
2023-04-09T04:17:27.841Z,78.60
2023-04-09T04:19:58.404Z,78.85
2023-04-09T04:22:26.416Z,78.80
2023-04-09T04:24:56.326Z,78.86
2023-04-09T04:27:24.638Z,78.93
2023-04-09T04:29:52.429Z,79.04
2023-04-09T04:32:34.945Z,79.11
2023-04-09T04:35:05.320Z,79.38
2023-04-09T04:37:33.408Z,79.47
2023-04-09T04:40:03.064Z,79.49
2023-04-09T04:42:32.031Z,79.53
2023-04-09T04:45:01.332Z,79.46
2023-04-09T04:47:49.444Z,79.61
2023-04-09T04:50:17.327Z,79.72
2023-04-09T04:52:54.216Z,80.05
2023-04-09T04:55:22.306Z,79.72
2023-04-09T04:57:52.544Z,79.48
2023-04-09T05:00:22.003Z,79.39
2023-04-09T05:02:50.103Z,79.53
2023-04-09T05:05:23.954Z,79.74
2023-04-09T05:07:54.138Z,79.87
2023-04-09T05:10:22.062Z,79.70
2023-04-09T05:12:50.050Z,79.98
2023-04-09T05:15:27.095Z,80.43
2023-04-09T05:17:55.593Z,80.30
2023-04-09T05:20:24.158Z,80.27
2023-04-09T05:23:10.565Z,80.27
2023-04-09T05:25:41.709Z,80.41
2023-04-09T05:28:16.739Z,80.43
2023-04-09T05:30:48.339Z,80.56
2023-04-09T05:33:16.501Z,80.50
2023-04-09T05:35:44.435Z,80.51
2023-04-09T05:38:13.821Z,80.41
2023-04-09T05:40:44.403Z,80.55
2023-04-09T05:43:13.010Z,80.38
2023-04-09T05:45:43.699Z,80.48
2023-04-09T05:48:11.659Z,80.41
2023-04-09T05:50:51.534Z,80.11
2023-04-09T05:53:23.003Z,80.25
2023-04-09T05:55:51.208Z,80.34
2023-04-09T05:58:20.003Z,80.01
2023-04-09T06:00:48.071Z,79.88
2023-04-09T06:03:16.089Z,79.78
2023-04-09T06:05:46.044Z,79.91
2023-04-09T06:08:14.251Z,80.04
2023-04-09T06:10:42.352Z,80.13
2023-04-09T06:13:10.615Z,80.13
2023-04-09T06:15:39.411Z,80.08
2023-04-09T06:18:07.465Z,80.02
2023-04-09T06:20:35.340Z,79.84
2023-04-09T06:23:03.299Z,79.74
2023-04-09T06:25:31.282Z,79.86
2023-04-09T06:27:59.217Z,80.10
2023-04-09T06:30:27.110Z,80.01
2023-04-09T06:32:55.606Z,80.17
2023-04-09T06:35:23.630Z,80.49
2023-04-09T06:37:51.693Z,80.84
2023-04-09T06:40:23.026Z,81.12
2023-04-09T06:42:51.623Z,81.06
2023-04-09T06:45:24.411Z,80.91
2023-04-09T06:47:52.532Z,81.01
2023-04-09T06:50:20.880Z,80.84
2023-04-09T06:52:48.676Z,80.67
2023-04-09T06:55:16.543Z,80.58
2023-04-09T06:57:44.318Z,80.41
2023-04-09T07:00:12.963Z,80.36
2023-04-09T07:02:41.187Z,80.24
2023-04-09T07:05:09.784Z,80.07
2023-04-09T07:07:37.693Z,79.80
2023-04-09T07:10:06.624Z,79.41
2023-04-09T07:12:35.571Z,79.39
2023-04-09T07:15:08.192Z,79.27
2023-04-09T07:17:36.099Z,79.26
2023-04-09T07:20:04.875Z,79.09
2023-04-09T07:22:32.791Z,78.88
2023-04-09T07:25:01.119Z,78.75
2023-04-09T07:27:29.293Z,78.73
2023-04-09T07:29:59.100Z,78.49
2023-04-09T07:32:28.285Z,78.09
2023-04-09T07:34:57.532Z,77.99
2023-04-09T07:37:27.063Z,78.06
2023-04-09T07:39:54.976Z,77.86
2023-04-09T07:42:22.933Z,77.61
2023-04-09T07:44:50.694Z,77.21
2023-04-09T07:47:18.580Z,77.07
2023-04-09T07:49:47.059Z,76.65
2023-04-09T07:52:15.487Z,76.41
2023-04-09T07:54:43.240Z,75.94
2023-04-09T07:57:11.254Z,75.88
2023-04-09T07:59:39.254Z,75.86
2023-04-09T08:02:08.018Z,75.33
2023-04-09T08:04:36.313Z,74.72
2023-04-09T08:07:04.345Z,74.94
2023-04-09T08:09:32.413Z,74.43
2023-04-09T08:12:01.124Z,74.60
2023-04-09T08:14:29.195Z,74.54
2023-04-09T08:16:57.033Z,73.98
2023-04-09T08:19:24.900Z,73.78
2023-04-09T08:21:52.908Z,73.46
2023-04-09T08:24:21.423Z,72.96
2023-04-09T08:26:49.243Z,73.06
2023-04-09T08:29:17.180Z,72.59
2023-04-09T08:31:45.038Z,72.38
2023-04-09T08:34:15.185Z,71.88
2023-04-09T08:36:46.468Z,70.96
2023-04-09T08:39:16.131Z,71.21
2023-04-09T08:41:44.588Z,70.71
2023-04-09T08:44:12.366Z,70.88
2023-04-09T08:46:40.277Z,70.18
2023-04-09T08:49:09.799Z,69.86
2023-04-09T08:51:37.729Z,68.30
2023-04-09T08:54:05.693Z,68.13
2023-04-09T08:56:33.506Z,68.23
2023-04-09T08:59:01.370Z,67.89
2023-04-09T09:01:31.509Z,67.34
2023-04-09T09:04:07.297Z,67.05
2023-04-09T09:06:41.352Z,67.24
2023-04-09T09:09:17.436Z,67.09
2023-04-09T09:11:52.556Z,65.73
2023-04-09T09:14:20.557Z,65.53
2023-04-09T09:17:05.027Z,64.98
2023-04-09T09:19:33.820Z,64.78
2023-04-09T09:22:08.065Z,64.96
2023-04-09T09:24:50.418Z,64.48
2023-04-09T09:27:43.111Z,64.17
2023-04-09T09:30:25.988Z,64.03
2023-04-09T09:33:04.717Z,63.95
2023-04-09T09:35:54.661Z,64.18
2023-04-09T09:38:22.561Z,63.88
2023-04-09T09:40:50.544Z,63.30
2023-04-09T09:43:18.346Z,63.63
2023-04-09T09:45:47.798Z,63.52
2023-04-09T09:48:16.361Z,62.87
2023-04-09T09:50:47.682Z,63.24
2023-04-09T09:53:22.740Z,62.99
2023-04-09T09:55:56.271Z,62.52
2023-04-09T09:58:34.419Z,61.81
2023-04-09T10:01:04.289Z,61.69
2023-04-09T10:03:35.613Z,62.14
2023-04-09T10:06:04.397Z,61.77
2023-04-09T10:08:34.903Z,62.03
2023-04-09T10:11:03.649Z,60.93
2023-04-09T10:13:40.255Z,60.92
2023-04-09T10:16:09.498Z,60.59
2023-04-09T10:18:37.598Z,60.11
2023-04-09T10:21:50.408Z,60.35
2023-04-09T10:24:18.352Z,59.71
2023-04-09T10:26:46.888Z,59.62
2023-04-09T10:29:16.616Z,58.80
2023-04-09T10:32:07.250Z,59.19
2023-04-09T10:34:41.125Z,59.09
2023-04-09T10:37:15.038Z,58.19
2023-04-09T10:39:47.701Z,58.97
2023-04-09T10:42:22.152Z,58.94
2023-04-09T10:45:08.725Z,59.08
2023-04-09T10:47:39.792Z,58.17
2023-04-09T10:50:26.639Z,58.64
2023-04-09T10:52:58.235Z,58.23
2023-04-09T10:55:53.049Z,58.46
2023-04-09T10:58:21.072Z,58.17
2023-04-09T11:00:52.202Z,56.51
2023-04-09T11:03:30.446Z,56.70
2023-04-09T11:06:07.098Z,57.55
2023-04-09T11:08:36.161Z,56.74
2023-04-09T11:11:04.719Z,56.99
2023-04-09T11:13:34.273Z,56.27
2023-04-09T11:16:06.754Z,56.25
2023-04-09T11:18:36.973Z,55.61
2023-04-09T11:21:05.215Z,55.51
2023-04-09T11:23:33.909Z,55.22
2023-04-09T11:26:05.173Z,54.53
2023-04-09T11:28:34.804Z,54.58
2023-04-09T11:31:05.905Z,55.66
2023-04-09T11:33:36.871Z,55.54
2023-04-09T11:36:06.912Z,55.53
2023-04-09T11:38:37.908Z,54.72
2023-04-09T11:41:05.829Z,53.82
2023-04-09T11:43:36.571Z,54.52
2023-04-09T11:46:08.029Z,54.35
2023-04-09T11:48:36.358Z,54.35
2023-04-09T11:51:04.775Z,53.77
2023-04-09T11:53:32.623Z,53.87
2023-04-09T11:56:00.667Z,54.44
2023-04-09T11:58:28.510Z,54.23
2023-04-09T12:00:59.070Z,54.52
2023-04-09T12:03:36.894Z,54.44
2023-04-09T12:06:07.137Z,53.07
2023-04-09T12:08:37.282Z,53.32
2023-04-09T12:11:13.366Z,52.71
2023-04-09T12:13:43.472Z,53.26
2023-04-09T12:16:13.692Z,53.34
2023-04-09T12:18:41.651Z,52.60
2023-04-09T12:21:09.503Z,52.68
2023-04-09T12:23:37.433Z,52.75
2023-04-09T12:26:05.393Z,52.61
2023-04-09T12:28:33.277Z,52.38
2023-04-09T12:31:01.230Z,51.60
2023-04-09T12:33:29.058Z,52.50
2023-04-09T12:35:58.409Z,52.90
2023-04-09T12:38:26.873Z,50.85
2023-04-09T12:40:54.918Z,51.75
2023-04-09T12:43:22.831Z,52.52
2023-04-09T12:45:51.556Z,52.25
2023-04-09T12:48:19.346Z,52.08
2023-04-09T12:50:47.138Z,51.92
2023-04-09T12:53:14.888Z,50.50
2023-04-09T12:55:43.176Z,50.11
2023-04-09T12:58:11.306Z,50.32
2023-04-09T13:00:39.192Z,50.73
2023-04-09T13:03:07.170Z,50.65
2023-04-09T13:05:35.630Z,50.39
2023-04-09T13:08:04.081Z,50.57
2023-04-09T13:10:31.854Z,49.36
2023-04-09T13:13:00.281Z,47.84
2023-04-09T13:15:28.559Z,48.09
2023-04-09T13:17:56.719Z,48.45
2023-04-09T13:20:24.834Z,48.88
2023-04-09T13:22:52.744Z,48.01
2023-04-09T13:25:20.658Z,45.58
2023-04-09T13:27:48.717Z,47.04
2023-04-09T13:30:16.496Z,47.07
2023-04-09T13:32:44.542Z,46.04
2023-04-09T13:35:12.418Z,47.08
2023-04-09T13:37:41.603Z,48.06
2023-04-09T13:40:09.861Z,47.56
2023-04-09T13:42:37.653Z,46.99
2023-04-09T13:45:06.870Z,48.09
2023-04-09T13:47:34.917Z,47.69
2023-04-09T13:50:03.093Z,48.16
2023-04-09T13:52:32.158Z,48.50
2023-04-09T13:55:00.073Z,48.74
2023-04-09T13:57:27.873Z,48.84
2023-04-09T13:59:55.686Z,47.73
2023-04-09T14:02:23.886Z,47.85
2023-04-09T14:04:52.568Z,47.73
2023-04-09T14:07:20.620Z,47.10
2023-04-09T14:09:48.434Z,47.33
2023-04-09T14:12:16.374Z,47.14
2023-04-09T14:14:44.134Z,46.39
2023-04-09T14:17:11.913Z,46.44
2023-04-09T14:19:39.721Z,45.82
2023-04-09T14:22:08.816Z,46.19
2023-04-09T14:24:40.049Z,46.36
2023-04-09T14:27:08.978Z,46.72
2023-04-09T14:29:36.761Z,46.31
2023-04-09T14:32:04.656Z,46.99
2023-04-09T14:34:32.442Z,46.79
2023-04-09T14:37:00.425Z,46.93
2023-04-09T14:39:29.075Z,46.46
2023-04-09T14:41:57.369Z,47.10
2023-04-09T14:44:27.965Z,46.94
2023-04-09T14:46:56.875Z,47.16
2023-04-09T14:49:24.706Z,47.38
2023-04-09T14:51:52.875Z,46.83
2023-04-09T14:54:20.763Z,45.67
2023-04-09T14:56:48.575Z,46.12
2023-04-09T14:59:16.314Z,46.06
2023-04-09T15:01:44.250Z,45.96
2023-04-09T15:04:12.226Z,45.33
2023-04-09T15:06:40.858Z,45.79
2023-04-09T15:09:09.082Z,45.41
2023-04-09T15:11:36.880Z,45.98
2023-04-09T15:14:04.637Z,46.26
2023-04-09T15:16:37.238Z,46.99
2023-04-09T15:19:05.397Z,45.18
2023-04-09T15:21:33.310Z,44.82
2023-04-09T15:24:01.180Z,45.01
2023-04-09T15:26:29.030Z,44.74
2023-04-09T15:29:08.183Z,44.95
2023-04-09T15:31:37.621Z,44.76
2023-04-09T15:34:07.089Z,45.06
2023-04-09T15:36:35.086Z,45.06
2023-04-09T15:39:04.509Z,45.67
2023-04-09T15:41:33.758Z,45.38
2023-04-09T15:44:01.644Z,44.79
2023-04-09T15:46:29.446Z,44.79
2023-04-09T15:48:57.220Z,44.68
2023-04-09T15:51:25.251Z,44.61
2023-04-09T15:53:53.443Z,44.57
2023-04-09T15:56:21.656Z,44.50
2023-04-09T15:58:49.597Z,44.19
2023-04-09T16:01:17.477Z,44.83
2023-04-09T16:03:50.588Z,45.15
2023-04-09T16:06:19.044Z,45.33
2023-04-09T16:08:46.929Z,45.61
2023-04-09T16:11:15.516Z,45.48
2023-04-09T16:13:43.268Z,46.04
2023-04-09T16:16:11.007Z,46.29
2023-04-09T16:18:38.914Z,46.54
2023-04-09T16:21:06.740Z,46.68
2023-04-09T16:23:34.618Z,46.75
2023-04-09T16:26:02.455Z,46.84
2023-04-09T16:28:30.353Z,46.96
2023-04-09T16:30:59.826Z,47.04
2023-04-09T16:33:27.953Z,47.06
2023-04-09T16:35:55.904Z,47.04
2023-04-09T16:38:24.715Z,47.35
2023-04-09T16:40:52.720Z,47.60
2023-04-09T16:43:20.560Z,47.91
2023-04-09T16:45:48.480Z,48.24
2023-04-09T16:48:16.363Z,48.54
2023-04-09T16:50:44.306Z,48.73
2023-04-09T16:53:12.097Z,48.92
2023-04-09T16:55:40.025Z,49.13
2023-04-09T16:58:07.910Z,49.43
2023-04-09T17:00:35.840Z,49.57
2023-04-09T17:03:04.454Z,49.70
2023-04-09T17:05:32.703Z,49.96
2023-04-09T17:08:01.252Z,50.12
2023-04-09T17:10:29.262Z,50.52
2023-04-09T17:12:57.668Z,50.43
2023-04-09T17:15:25.939Z,50.57
2023-04-09T17:17:54.661Z,50.88
2023-04-09T17:20:25.198Z,50.67
2023-04-09T17:22:54.678Z,50.95
2023-04-09T17:25:25.323Z,50.89
2023-04-09T17:27:54.852Z,51.12
2023-04-09T17:30:23.188Z,50.89
2023-04-09T17:32:51.262Z,50.74
2023-04-09T17:35:19.222Z,50.75
2023-04-09T17:37:47.075Z,50.70
2023-04-09T17:40:16.882Z,51.02
2023-04-09T17:42:45.151Z,51.55
2023-04-09T17:45:13.217Z,51.63
2023-04-09T17:47:41.235Z,52.08
2023-04-09T17:50:09.684Z,52.40
2023-04-09T17:52:38.744Z,52.57
2023-04-09T17:55:08.631Z,53.14
2023-04-09T17:57:36.653Z,53.16
2023-04-09T18:00:05.559Z,54.01
2023-04-09T18:02:34.612Z,54.15
2023-04-09T18:05:07.280Z,53.91
2023-04-09T18:07:35.462Z,53.89
2023-04-09T18:10:03.844Z,53.81
2023-04-09T18:12:32.723Z,54.12
2023-04-09T18:15:00.514Z,54.19
2023-04-09T18:17:28.448Z,54.21
2023-04-09T18:19:58.296Z,53.80
2023-04-09T18:22:27.657Z,53.74
2023-04-09T18:24:55.904Z,53.97
2023-04-09T18:27:23.742Z,54.21
2023-04-09T18:29:51.683Z,54.11
2023-04-09T18:32:19.819Z,54.80
2023-04-09T18:34:48.486Z,55.23
2023-04-09T18:37:16.417Z,55.44
2023-04-09T18:39:46.266Z,55.52
2023-04-09T18:42:14.221Z,55.83
2023-04-09T18:44:42.579Z,56.17
2023-04-09T18:47:10.996Z,56.40
2023-04-09T18:49:38.832Z,56.66
2023-04-09T18:52:07.794Z,56.47
2023-04-09T18:54:36.597Z,56.53
2023-04-09T18:57:04.672Z,56.46
2023-04-09T18:59:34.795Z,56.95
2023-04-09T19:02:06.323Z,57.35
2023-04-09T19:04:36.496Z,57.30
2023-04-09T19:07:04.613Z,57.13
2023-04-09T19:09:32.844Z,57.24
2023-04-09T19:12:01.874Z,57.09
2023-04-09T19:14:30.023Z,57.09
2023-04-09T19:16:58.732Z,57.35
2023-04-09T19:19:27.385Z,57.49
2023-04-09T19:21:55.196Z,57.76
2023-04-09T19:24:23.635Z,57.63
2023-04-09T19:26:53.282Z,57.64
2023-04-09T19:29:21.204Z,57.62
2023-04-09T19:31:49.047Z,57.72
2023-04-09T19:34:17.034Z,57.85
2023-04-09T19:36:45.697Z,58.07
2023-04-09T19:39:14.038Z,58.32
2023-04-09T19:41:42.010Z,58.42
2023-04-09T19:44:10.609Z,58.38
2023-04-09T19:46:39.383Z,58.42
2023-04-09T19:49:08.276Z,58.30
2023-04-09T19:51:36.764Z,58.66
2023-04-09T19:54:05.335Z,58.62
2023-04-09T19:56:34.356Z,58.56
2023-04-09T19:59:02.386Z,58.53
2023-04-09T20:01:30.425Z,58.83
2023-04-09T20:03:58.472Z,59.03
2023-04-09T20:06:27.174Z,59.07
2023-04-09T20:08:55.911Z,59.00
2023-04-09T20:11:24.025Z,59.30
2023-04-09T20:13:52.199Z,59.54
2023-04-09T20:16:20.208Z,59.61
2023-04-09T20:18:48.221Z,59.75
2023-04-09T20:21:16.143Z,59.48
2023-04-09T20:23:45.548Z,59.61
2023-04-09T20:26:13.867Z,59.83
2023-04-09T20:28:42.195Z,60.11
2023-04-09T20:31:10.253Z,60.26
2023-04-09T20:33:38.078Z,60.09
2023-04-09T20:36:18.654Z,60.15
2023-04-09T20:38:48.406Z,60.16
2023-04-09T20:41:16.483Z,60.40
2023-04-09T20:43:44.317Z,60.47
2023-04-09T20:46:12.438Z,60.69
2023-04-09T20:48:41.770Z,60.60
2023-04-09T20:51:11.959Z,60.92
2023-04-09T20:53:39.804Z,61.11
2023-04-09T20:56:09.127Z,61.31
2023-04-09T20:58:37.267Z,61.34
2023-04-09T21:01:09.924Z,61.28
2023-04-09T21:03:40.117Z,61.52
2023-04-09T21:06:08.899Z,61.58
2023-04-09T21:08:38.435Z,61.70
2023-04-09T21:11:06.712Z,61.80
2023-04-09T21:13:50.416Z,61.80
2023-04-09T21:16:22.925Z,61.82
2023-04-09T21:18:51.505Z,62.22
2023-04-09T21:21:20.774Z,62.14
2023-04-09T21:23:48.623Z,62.30
2023-04-09T21:26:16.558Z,62.23
2023-04-09T21:28:45.919Z,62.18
2023-04-09T21:31:15.868Z,62.10
2023-04-09T21:33:43.852Z,62.17
2023-04-09T21:36:11.905Z,62.22
2023-04-09T21:38:39.802Z,62.39
2023-04-09T21:41:07.779Z,62.51
2023-04-09T21:43:36.222Z,62.41
2023-04-09T21:46:05.586Z,62.55
2023-04-09T21:48:33.653Z,63.08
2023-04-09T21:51:01.432Z,63.14
2023-04-09T21:53:31.241Z,63.30
2023-04-09T21:55:59.081Z,63.32
2023-04-09T21:58:27.081Z,63.37
2023-04-09T22:00:54.971Z,63.37
2023-04-09T22:03:24.680Z,63.54
2023-04-09T22:05:52.831Z,63.64
2023-04-09T22:08:20.663Z,63.75
2023-04-09T22:10:48.503Z,63.66
2023-04-09T22:13:16.414Z,63.81
2023-04-09T22:15:44.368Z,63.84
2023-04-09T22:18:12.255Z,63.90
2023-04-09T22:20:40.046Z,64.04
2023-04-09T22:23:09.654Z,63.98
2023-04-09T22:25:37.582Z,64.05
2023-04-09T22:28:05.834Z,64.07
2023-04-09T22:30:33.681Z,64.06
2023-04-09T22:33:02.336Z,64.26
2023-04-09T22:35:31.360Z,64.14
2023-04-09T22:37:59.638Z,64.20
2023-04-09T22:40:27.485Z,64.21
2023-04-09T22:42:55.280Z,64.38
2023-04-09T22:45:23.030Z,64.63
2023-04-09T22:47:53.033Z,64.70
2023-04-09T22:50:21.100Z,64.63
2023-04-09T22:52:51.531Z,64.60
2023-04-09T22:55:19.297Z,64.88
2023-04-09T22:57:47.108Z,64.95
2023-04-09T23:00:15.881Z,65.04
2023-04-09T23:02:43.873Z,65.16
2023-04-09T23:05:11.877Z,64.87
2023-04-09T23:07:39.760Z,64.83
2023-04-09T23:10:08.255Z,64.76
2023-04-09T23:12:36.124Z,65.11
2023-04-09T23:15:04.317Z,65.26
2023-04-09T23:17:32.225Z,65.28
2023-04-09T23:20:00.691Z,65.29
2023-04-09T23:22:28.591Z,65.40
2023-04-09T23:24:56.653Z,65.42
2023-04-09T23:27:28.405Z,65.38
2023-04-09T23:29:57.075Z,65.25
2023-04-09T23:32:25.206Z,65.59
2023-04-09T23:34:52.976Z,65.70
2023-04-09T23:37:20.843Z,65.71
2023-04-09T23:39:48.720Z,65.71
2023-04-09T23:42:16.613Z,65.58
2023-04-09T23:44:44.439Z,65.83
2023-04-09T23:47:13.791Z,65.93
2023-04-09T23:49:43.434Z,65.99
2023-04-09T23:52:11.204Z,65.96
2023-04-09T23:54:39.042Z,66.00
2023-04-09T23:57:07.129Z,66.30
2023-04-09T23:59:35.943Z,66.26
